Terminal Aerodrome Forecast
Issued by NWS

Home | Current Version | Previous Version | Text Only | Print | Product List | Glossary On
Versions: 1 2 3 4 5 6 7 8 9 10 11 12 13 14 15 16 17 18 19 20 21 22 23 24 25 26
000
FTUS43 KMKX 280706 AAA
TAFUES
TAF AMD
KUES 280706Z 2807/2906 18006KT P6SM SCT016 BKN023
      TEMPO 2807/2809 BKN016
     FM280900 18005KT 5SM BR OVC014
     FM281200 18005KT 5SM BR OVC015
     FM281500 19008KT P6SM BKN025
     FM281700 19008KT P6SM BKN040
     FM281900 20009KT P6SM BKN035=

USA.gov is the U.S. government's official web portal to all federal, state and local government web resources and services.